createdAt,value
2022-11-29T00:00:56.353Z,100870.22
2022-11-29T00:03:33.706Z,100881.63
2022-11-29T00:06:15.163Z,100865.81
2022-11-29T00:08:51.038Z,100877.25
2022-11-29T00:11:44.210Z,100874.63
2022-11-29T00:14:23.722Z,100870.22
2022-11-29T00:17:02.841Z,100870.22
2022-11-29T00:19:41.148Z,100862.31
2022-11-29T00:22:16.716Z,100859.69
2022-11-29T00:24:53.846Z,100874.63
2022-11-29T00:27:37.857Z,100868.44
2022-11-29T00:30:22.086Z,100861.44
2022-11-29T00:33:00.212Z,100861.44
2022-11-29T00:35:51.522Z,100857.03
2022-11-29T00:38:37.875Z,100852.63
2022-11-29T00:41:15.711Z,100864.06
2022-11-29T00:43:58.889Z,100849.13
2022-11-29T00:46:33.018Z,100848.28
2022-11-29T00:49:16.787Z,100839.50
2022-11-29T00:51:53.172Z,100843.00
2022-11-29T00:54:28.215Z,100850.91
2022-11-29T00:57:01.639Z,100853.56
2022-11-29T00:59:35.023Z,100843.88
2022-11-29T01:02:08.553Z,100850.91
2022-11-29T01:04:42.377Z,100841.25
2022-11-29T01:07:15.663Z,100833.34
2022-11-29T01:09:50.542Z,100840.38
2022-11-29T01:12:24.062Z,100838.63
2022-11-29T01:14:57.478Z,100841.25
2022-11-29T01:17:30.910Z,100837.75
2022-11-29T01:20:05.220Z,100840.38
2022-11-29T01:22:39.196Z,100837.75
2022-11-29T01:25:14.647Z,100832.47
2022-11-29T01:27:48.260Z,100833.34
2022-11-29T01:30:21.857Z,100831.59
2022-11-29T01:32:55.265Z,100829.84
2022-11-29T01:35:28.737Z,100826.34
2022-11-29T01:38:02.125Z,100832.47
2022-11-29T01:40:36.976Z,100827.19
2022-11-29T01:43:17.431Z,100818.38
2022-11-29T01:45:51.777Z,100821.03
2022-11-29T01:48:30.755Z,100826.28
2022-11-29T01:51:04.504Z,100817.53
2022-11-29T01:53:37.992Z,100817.53
2022-11-29T01:56:15.994Z,100813.13
2022-11-29T01:58:49.755Z,100818.41
2022-11-29T02:01:23.208Z,100819.31
2022-11-29T02:03:57.021Z,100821.94
2022-11-29T02:06:31.664Z,100822.81
2022-11-29T02:09:06.008Z,100813.13
2022-11-29T02:12:04.643Z,100825.44
2022-11-29T02:14:52.779Z,100816.66
2022-11-29T02:17:35.270Z,100826.34
2022-11-29T02:20:33.519Z,100821.94
2022-11-29T02:23:27.886Z,100816.66
2022-11-29T02:26:16.748Z,100820.16
2022-11-29T02:29:13.690Z,100823.66
2022-11-29T02:32:33.494Z,100821.94
2022-11-29T02:35:25.152Z,100818.41
2022-11-29T02:38:21.691Z,100821.94
2022-11-29T02:41:22.997Z,100819.31
2022-11-29T02:44:31.900Z,100823.66
2022-11-29T02:47:17.013Z,100823.72
2022-11-29T02:50:16.190Z,100833.34
2022-11-29T02:53:01.690Z,100843.00
2022-11-29T02:55:43.178Z,100834.25
2022-11-29T02:58:25.103Z,100830.72
2022-11-29T03:01:04.099Z,100835.97
2022-11-29T03:03:42.318Z,100839.50
2022-11-29T03:06:23.475Z,100835.09
2022-11-29T03:09:07.687Z,100835.97
2022-11-29T03:11:49.801Z,100837.75
2022-11-29T03:14:27.206Z,100841.25
2022-11-29T03:17:08.591Z,100835.09
2022-11-29T03:20:01.104Z,100835.97
2022-11-29T03:22:45.184Z,100850.00
2022-11-29T03:25:27.425Z,100850.00
2022-11-29T03:28:04.302Z,100837.75
2022-11-29T03:30:41.392Z,100847.38
2022-11-29T03:33:23.960Z,100847.38
2022-11-29T03:36:05.894Z,100851.78
2022-11-29T03:38:42.080Z,100854.41
2022-11-29T03:41:25.169Z,100856.16
2022-11-29T03:44:04.645Z,100853.53
2022-11-29T03:46:43.642Z,100853.53
2022-11-29T03:49:24.075Z,100860.53
2022-11-29T03:52:03.992Z,100871.97
2022-11-29T03:54:49.318Z,100875.47
2022-11-29T03:57:32.855Z,100870.22
2022-11-29T04:00:09.589Z,100869.34
2022-11-29T04:03:09.731Z,100864.09
2022-11-29T04:06:15.326Z,100865.84
2022-11-29T04:09:16.222Z,100876.34
2022-11-29T04:12:22.502Z,100874.63
2022-11-29T04:15:31.049Z,100878.13
2022-11-29T04:18:27.276Z,100872.84
2022-11-29T04:21:29.400Z,100876.38
2022-11-29T04:24:50.033Z,100880.75
2022-11-29T04:27:55.906Z,100884.28
2022-11-29T04:30:38.711Z,100882.53
2022-11-29T04:33:33.617Z,100882.53
2022-11-29T04:36:32.429Z,100893.94
2022-11-29T04:39:27.391Z,100893.06
2022-11-29T04:42:28.121Z,100896.56
2022-11-29T04:45:33.861Z,100888.66
2022-11-29T04:48:32.193Z,100891.31
2022-11-29T04:51:20.990Z,100904.50
2022-11-29T04:54:01.590Z,100893.94
2022-11-29T04:56:41.946Z,100892.19
2022-11-29T04:59:22.466Z,100896.56
2022-11-29T05:02:06.953Z,100893.06
2022-11-29T05:04:52.183Z,100893.06
2022-11-29T05:07:34.320Z,100894.81
2022-11-29T05:10:24.348Z,100896.56
2022-11-29T05:13:04.604Z,100891.28
2022-11-29T05:15:58.694Z,100904.47
2022-11-29T05:18:58.133Z,100908.88
2022-11-29T05:21:43.476Z,100904.47
2022-11-29T05:24:29.630Z,100912.34
2022-11-29T05:27:12.968Z,100915.00
2022-11-29T05:29:55.554Z,100918.53
2022-11-29T05:32:34.901Z,100926.41
2022-11-29T05:35:44.692Z,100936.06
2022-11-29T05:38:39.613Z,100936.97
2022-11-29T05:41:46.093Z,100930.78
2022-11-29T05:44:33.113Z,100936.97
2022-11-29T05:47:10.233Z,100945.72
2022-11-29T05:49:50.626Z,100948.34
2022-11-29T05:52:29.894Z,100946.63
2022-11-29T05:55:22.256Z,100951.88
2022-11-29T05:58:00.435Z,100953.63
2022-11-29T06:00:42.607Z,100960.66
2022-11-29T06:03:26.312Z,100959.78
2022-11-29T06:06:08.266Z,100963.28
2022-11-29T06:08:49.139Z,100963.28
2022-11-29T06:11:29.797Z,100967.69
2022-11-29T06:14:08.975Z,100972.06
2022-11-29T06:16:58.423Z,100966.78
2022-11-29T06:20:04.383Z,100986.13
2022-11-29T06:22:57.773Z,100988.75
2022-11-29T06:25:44.421Z,100980.84
2022-11-29T06:28:38.790Z,100986.97
2022-11-29T06:31:19.904Z,100991.38
2022-11-29T06:34:03.761Z,100986.09
2022-11-29T06:36:43.750Z,100995.75
2022-11-29T06:39:17.751Z,100995.75
2022-11-29T06:41:50.892Z,100996.66
2022-11-29T06:44:26.791Z,101000.16
2022-11-29T06:47:07.267Z,100993.13
2022-11-29T06:49:45.694Z,100990.50
2022-11-29T06:52:28.663Z,101001.91
2022-11-29T06:55:11.979Z,101011.59
2022-11-29T06:57:57.667Z,101005.44
2022-11-29T07:00:39.659Z,101007.19
2022-11-29T07:03:40.723Z,101007.19
2022-11-29T07:06:21.650Z,101011.59
2022-11-29T07:09:01.095Z,101012.44
2022-11-29T07:11:36.911Z,101004.53
2022-11-29T07:14:11.206Z,101010.72
2022-11-29T07:16:57.162Z,101010.72
2022-11-29T07:19:44.839Z,101012.47
2022-11-29T07:22:37.831Z,101013.34
2022-11-29T07:25:21.390Z,101016.88
2022-11-29T07:28:01.454Z,101023.88
2022-11-29T07:30:43.741Z,101016.88
2022-11-29T07:33:27.209Z,101023.03
2022-11-29T07:36:11.685Z,101015.13
2022-11-29T07:39:00.558Z,101022.16
2022-11-29T07:41:42.486Z,101017.75
2022-11-29T07:44:27.212Z,101018.63
2022-11-29T07:47:00.847Z,101018.63
2022-11-29T07:49:35.888Z,101021.25
2022-11-29T07:52:12.916Z,101017.75
2022-11-29T07:54:46.837Z,101022.16
2022-11-29T07:57:21.288Z,101024.75
2022-11-29T07:59:54.806Z,101027.41
2022-11-29T08:02:30.044Z,101030.03
2022-11-29T08:05:05.392Z,101025.66
2022-11-29T08:07:40.129Z,101021.25
2022-11-29T08:10:17.020Z,101028.31
2022-11-29T08:12:52.497Z,101032.66
2022-11-29T08:15:29.067Z,101023.91
2022-11-29T08:18:03.225Z,101028.31
2022-11-29T08:20:39.412Z,101035.31
2022-11-29T08:23:14.266Z,101028.31
2022-11-29T08:25:48.656Z,101027.41
2022-11-29T08:28:22.377Z,101018.63
2022-11-29T08:31:02.714Z,101023.03
2022-11-29T08:33:37.312Z,101029.19
2022-11-29T08:36:15.262Z,101030.06
2022-11-29T08:38:48.973Z,101038.88
2022-11-29T08:41:22.469Z,101030.91
2022-11-29T08:43:56.009Z,101033.56
2022-11-29T08:46:50.231Z,101033.56
2022-11-29T08:49:23.851Z,101030.94
2022-11-29T08:52:12.665Z,101030.06
2022-11-29T08:54:46.386Z,101039.75
2022-11-29T08:57:41.440Z,101031.84
2022-11-29T09:00:16.410Z,101032.69
2022-11-29T09:02:50.088Z,101031.84
2022-11-29T09:05:23.607Z,101030.94
2022-11-29T09:08:00.212Z,101037.09
2022-11-29T09:10:33.830Z,101031.84
2022-11-29T09:13:07.577Z,101037.97
2022-11-29T09:15:43.659Z,101038.84
2022-11-29T09:18:17.340Z,101036.22
2022-11-29T09:20:50.857Z,101035.34
2022-11-29T09:23:25.933Z,101037.97
2022-11-29T09:25:59.489Z,101042.34
2022-11-29T09:28:33.437Z,101038.84
2022-11-29T09:31:07.842Z,101031.78
2022-11-29T09:33:41.618Z,101033.56
2022-11-29T09:36:16.836Z,101039.72
2022-11-29T09:38:51.873Z,101044.97
2022-11-29T09:41:43.073Z,101031.78
2022-11-29T09:44:29.861Z,101042.34
2022-11-29T09:47:20.325Z,101033.56
2022-11-29T09:50:16.613Z,101026.50
2022-11-29T09:53:06.251Z,101029.13
2022-11-29T09:55:52.128Z,101027.38
2022-11-29T09:58:31.433Z,101020.31
2022-11-29T10:01:09.660Z,101026.50
2022-11-29T10:03:46.964Z,101027.38
2022-11-29T10:06:27.158Z,101025.59
2022-11-29T10:09:16.118Z,101034.41
2022-11-29T10:12:07.462Z,101029.13
2022-11-29T10:14:47.922Z,101025.59
2022-11-29T10:17:35.188Z,101028.22
2022-11-29T10:20:24.277Z,101026.47
2022-11-29T10:23:02.756Z,101027.34
2022-11-29T10:25:43.711Z,101017.66
2022-11-29T10:28:21.229Z,101025.56
2022-11-29T10:30:56.956Z,101031.72
2022-11-29T10:33:35.490Z,101028.22
2022-11-29T10:36:20.282Z,101029.09
2022-11-29T10:38:59.633Z,101017.66
2022-11-29T10:41:34.402Z,101022.06
2022-11-29T10:44:17.358Z,101024.72
2022-11-29T10:46:52.808Z,101017.66
2022-11-29T10:49:36.717Z,101019.44
2022-11-29T10:52:22.296Z,101019.44
2022-11-29T10:54:59.814Z,101026.44
2022-11-29T10:58:00.315Z,101024.72
2022-11-29T11:00:48.036Z,101029.06
2022-11-29T11:03:37.422Z,101024.66
2022-11-29T11:06:23.577Z,101022.91
2022-11-29T11:09:20.370Z,101033.47
2022-11-29T11:11:56.143Z,101044.03
2022-11-29T11:14:33.155Z,101029.06
2022-11-29T11:17:23.647Z,101030.84
2022-11-29T11:20:00.994Z,101030.84
2022-11-29T11:22:36.251Z,101029.09
2022-11-29T11:25:29.015Z,101037.00
2022-11-29T11:28:15.830Z,101037.00
2022-11-29T11:30:53.554Z,101031.72
2022-11-29T11:33:30.467Z,101036.13
2022-11-29T11:36:10.151Z,101037.00
2022-11-29T11:38:54.629Z,101029.97
2022-11-29T11:41:44.134Z,101032.63
2022-11-29T11:47:28.395Z,101049.31
2022-11-29T11:50:14.987Z,101056.38
2022-11-29T11:52:55.610Z,101043.19
2022-11-29T11:55:50.186Z,101042.28
2022-11-29T11:58:25.005Z,101049.31
2022-11-29T12:01:06.908Z,101051.09
2022-11-29T12:03:57.613Z,101054.59
2022-11-29T12:06:41.274Z,101046.69
2022-11-29T12:09:29.235Z,101050.19
2022-11-29T12:12:17.956Z,101059.88
2022-11-29T12:14:56.987Z,101053.75
2022-11-29T12:17:40.411Z,101058.13
2022-11-29T12:20:36.936Z,101058.13
2022-11-29T12:23:35.314Z,101054.59
2022-11-29T12:26:48.578Z,101058.13
2022-11-29T12:29:17.268Z,101056.38
2022-11-29T12:32:07.580Z,101059.88
2022-11-29T12:35:13.656Z,101063.41
2022-11-29T12:37:57.939Z,101058.16
2022-11-29T12:40:41.774Z,101064.31
2022-11-29T12:43:29.976Z,101069.56
2022-11-29T12:46:13.790Z,101066.06
2022-11-29T12:48:54.187Z,101056.38
2022-11-29T12:51:36.577Z,101060.78
2022-11-29T12:54:29.729Z,101066.06
2022-11-29T12:57:12.171Z,101075.72
2022-11-29T13:00:09.749Z,101066.94
2022-11-29T13:02:53.892Z,101074.84
2022-11-29T13:05:43.461Z,101081.91
2022-11-29T13:08:44.362Z,101081.00
2022-11-29T13:11:23.395Z,101075.72
2022-11-29T13:14:34.541Z,101077.50
2022-11-29T13:17:02.911Z,101085.41
2022-11-29T13:19:41.912Z,101087.19
2022-11-29T13:22:19.287Z,101076.63
2022-11-29T13:24:57.752Z,101084.53
2022-11-29T13:27:36.465Z,101090.69
2022-11-29T13:30:16.039Z,101093.31
2022-11-29T13:33:00.161Z,101089.81
2022-11-29T13:35:41.339Z,101097.72
2022-11-29T13:38:20.030Z,101096.81
2022-11-29T13:40:59.490Z,101097.72
2022-11-29T13:43:40.876Z,101101.22
2022-11-29T13:46:24.306Z,101107.41
2022-11-29T13:48:57.920Z,101102.13
2022-11-29T13:51:34.709Z,101102.13
2022-11-29T13:54:26.452Z,101089.81
2022-11-29T13:57:03.984Z,101097.72
2022-11-29T13:59:47.132Z,101099.50
2022-11-29T14:02:32.191Z,101103.00
2022-11-29T14:05:08.082Z,101096.84
2022-11-29T14:08:23.062Z,101103.00
2022-11-29T14:10:59.641Z,101103.00
2022-11-29T14:13:38.517Z,101105.63
2022-11-29T14:16:21.019Z,101099.50
2022-11-29T14:19:32.871Z,101106.50
2022-11-29T14:22:21.877Z,101103.00
2022-11-29T14:25:11.795Z,101110.03
2022-11-29T14:28:00.384Z,101100.34
2022-11-29T14:30:52.011Z,101110.91
2022-11-29T14:33:51.599Z,101102.13
2022-11-29T14:36:48.179Z,101105.63
2022-11-29T14:39:42.949Z,101104.78
2022-11-29T14:42:19.319Z,101103.88
2022-11-29T14:44:55.570Z,101109.16
2022-11-29T14:47:32.841Z,101107.41
2022-11-29T14:50:10.569Z,101108.28
2022-11-29T14:52:52.816Z,101110.03
2022-11-29T14:55:37.553Z,101109.16
2022-11-29T14:58:22.925Z,101104.78
2022-11-29T15:01:10.084Z,101107.41
2022-11-29T15:03:50.968Z,101117.06
2022-11-29T15:06:27.833Z,101110.91
2022-11-29T15:09:07.410Z,101125.84
2022-11-29T15:11:54.885Z,101111.78
2022-11-29T15:14:38.255Z,101117.94
2022-11-29T15:17:31.680Z,101117.94
2022-11-29T15:20:29.697Z,101124.97
2022-11-29T15:23:07.457Z,101121.47
2022-11-29T15:25:48.887Z,101132.88
2022-11-29T15:28:27.044Z,101131.16
2022-11-29T15:31:07.189Z,101126.72
2022-11-29T15:33:42.821Z,101139.06
2022-11-29T15:36:19.798Z,101132.00
2022-11-29T15:38:55.531Z,101132.88
2022-11-29T15:41:32.368Z,101133.78
2022-11-29T15:44:07.575Z,101139.06
2022-11-29T15:46:41.037Z,101141.69
2022-11-29T15:49:19.360Z,101142.56
2022-11-29T15:51:58.235Z,101147.84
2022-11-29T15:54:35.675Z,101146.06
2022-11-29T15:57:17.229Z,101150.47
2022-11-29T15:59:55.456Z,101158.38
2022-11-29T16:02:31.692Z,101161.88
2022-11-29T16:05:18.078Z,101152.25
2022-11-29T16:07:56.072Z,101151.34
2022-11-29T16:10:36.177Z,101149.59
2022-11-29T16:13:33.320Z,101156.63
2022-11-29T16:16:12.058Z,101148.69
2022-11-29T16:18:48.177Z,101161.88
2022-11-29T16:21:27.457Z,101153.09
2022-11-29T16:24:15.547Z,101156.63
2022-11-29T16:26:51.437Z,101162.78
2022-11-29T16:29:33.291Z,101161.88
2022-11-29T16:32:21.902Z,101164.53
2022-11-29T16:35:17.070Z,101168.06
2022-11-29T16:37:50.706Z,101170.69
2022-11-29T16:40:30.920Z,101168.91
2022-11-29T16:43:29.182Z,101176.84
2022-11-29T16:49:05.443Z,101182.09
2022-11-29T16:51:48.450Z,101175.97
2022-11-29T16:54:26.465Z,101172.44
2022-11-29T16:57:03.066Z,101180.34
2022-11-29T16:59:40.710Z,101177.69
2022-11-29T17:02:20.717Z,101182.13
2022-11-29T17:04:57.077Z,101175.97
2022-11-29T17:07:36.455Z,101175.97
2022-11-29T17:10:14.935Z,101187.38
2022-11-29T17:12:48.634Z,101183.88
2022-11-29T17:15:22.088Z,101182.97
2022-11-29T17:17:55.544Z,101190.03
2022-11-29T17:20:30.509Z,101185.59
2022-11-29T17:23:05.073Z,101190.03
2022-11-29T17:25:38.471Z,101191.78
2022-11-29T17:28:11.933Z,101194.41
2022-11-29T17:30:45.495Z,101190.91
2022-11-29T17:33:21.798Z,101191.78
2022-11-29T17:36:04.577Z,101190.88
2022-11-29T17:38:43.041Z,101194.38
2022-11-29T17:41:21.044Z,101194.38
2022-11-29T17:43:56.030Z,101199.63
2022-11-29T17:46:31.176Z,101191.72
2022-11-29T17:49:07.272Z,101197.88
2022-11-29T17:51:53.421Z,101191.72
2022-11-29T17:54:33.161Z,101191.72
2022-11-29T17:57:06.603Z,101193.47
2022-11-29T18:02:33.213Z,101200.50
2022-11-29T18:05:07.707Z,101202.25
2022-11-29T18:07:58.199Z,101195.19
2022-11-29T18:10:31.805Z,101195.19
2022-11-29T18:13:11.960Z,101194.34
2022-11-29T18:15:45.377Z,101196.97
2022-11-29T18:18:18.991Z,101200.47
2022-11-29T18:20:53.627Z,101198.72
2022-11-29T18:23:31.419Z,101189.09
2022-11-29T18:26:09.820Z,101198.72
2022-11-29T18:28:45.010Z,101199.59
2022-11-29T18:31:21.626Z,101203.16
2022-11-29T18:33:56.841Z,101205.81
2022-11-29T18:36:32.363Z,101199.63
2022-11-29T18:39:09.290Z,101201.41
2022-11-29T18:41:44.554Z,101204.91
2022-11-29T18:44:35.581Z,101205.81
2022-11-29T18:47:09.728Z,101202.28
2022-11-29T18:49:43.199Z,101213.72
2022-11-29T18:52:16.731Z,101211.97
2022-11-29T18:54:51.592Z,101216.38
2022-11-29T18:57:25.033Z,101215.44
2022-11-29T18:59:58.430Z,101211.06
2022-11-29T19:02:31.892Z,101217.19
2022-11-29T19:05:05.570Z,101212.78
2022-11-29T19:07:39.030Z,101214.56
2022-11-29T19:10:14.083Z,101226.88
2022-11-29T19:12:47.543Z,101216.31
2022-11-29T19:15:20.946Z,101221.59
2022-11-29T19:17:54.644Z,101225.06
2022-11-29T19:20:28.025Z,101225.97
2022-11-29T19:23:01.459Z,101233.00
2022-11-29T19:25:37.187Z,101229.50
2022-11-29T19:28:14.072Z,101234.75
2022-11-29T19:30:55.480Z,101233.00
2022-11-29T19:33:29.035Z,101241.81
2022-11-29T19:36:06.259Z,101240.03
2022-11-29T19:38:40.541Z,101243.50
2022-11-29T19:41:18.090Z,101247.03
2022-11-29T19:43:52.144Z,101249.66
2022-11-29T19:46:26.333Z,101251.41
2022-11-29T19:49:02.859Z,101255.75
2022-11-29T19:51:37.043Z,101255.75
2022-11-29T19:54:13.529Z,101259.28
2022-11-29T19:56:48.365Z,101256.63
2022-11-29T19:59:21.780Z,101260.13
2022-11-29T20:01:55.303Z,101260.13
2022-11-29T20:04:28.789Z,101261.00
2022-11-29T20:07:03.648Z,101265.41
2022-11-29T20:09:37.113Z,101266.28
2022-11-29T20:12:12.031Z,101270.69
2022-11-29T20:14:45.466Z,101270.72
2022-11-29T20:17:19.116Z,101275.09
2022-11-29T20:19:52.600Z,101278.66
2022-11-29T20:22:26.090Z,101272.50
2022-11-29T20:24:59.621Z,101273.41
2022-11-29T20:27:34.595Z,101278.66
2022-11-29T20:30:10.520Z,101276.00
2022-11-29T20:32:44.444Z,101273.41
2022-11-29T20:35:18.019Z,101274.31
2022-11-29T20:38:13.262Z,101275.16
2022-11-29T20:41:02.339Z,101277.75
2022-11-29T20:43:48.359Z,101277.75
2022-11-29T20:46:22.518Z,101280.38
2022-11-29T20:49:01.705Z,101273.34
2022-11-29T20:51:44.138Z,101271.56
2022-11-29T20:54:21.518Z,101270.69
2022-11-29T20:56:55.046Z,101268.03
2022-11-29T20:59:32.285Z,101276.81
2022-11-29T21:02:08.803Z,101282.97
2022-11-29T21:04:42.256Z,101281.19
2022-11-29T21:07:15.689Z,101292.59
2022-11-29T21:09:49.140Z,101286.41
2022-11-29T21:12:26.291Z,101288.19
2022-11-29T21:15:02.454Z,101285.56
2022-11-29T21:17:36.691Z,101289.94
2022-11-29T21:20:19.108Z,101290.81
2022-11-29T21:23:01.418Z,101293.44
2022-11-29T21:25:57.628Z,101296.06
2022-11-29T21:28:39.012Z,101284.66
2022-11-29T21:31:19.112Z,101290.81
2022-11-29T21:33:54.662Z,101290.84
2022-11-29T21:36:29.107Z,101282.94
2022-11-29T21:39:05.379Z,101289.06
2022-11-29T21:41:39.338Z,101294.31
2022-11-29T21:44:18.769Z,101296.06
2022-11-29T21:46:53.706Z,101292.53
2022-11-29T21:49:27.110Z,101289.03
2022-11-29T21:52:01.271Z,101286.41
2022-11-29T21:54:35.356Z,101293.44
2022-11-29T21:57:10.411Z,101291.75
2022-11-29T21:59:44.853Z,101287.34
2022-11-29T22:02:24.579Z,101288.19
2022-11-29T22:05:02.582Z,101289.97
2022-11-29T22:07:36.072Z,101292.56
2022-11-29T22:10:13.510Z,101297.00
2022-11-29T22:12:52.174Z,101290.84
2022-11-29T22:15:25.928Z,101284.69
2022-11-29T22:18:00.719Z,101293.47
2022-11-29T22:20:34.162Z,101291.69
2022-11-29T22:23:14.146Z,101293.44
2022-11-29T22:25:48.047Z,101287.31
2022-11-29T22:28:21.422Z,101287.31
2022-11-29T22:31:02.204Z,101289.06
2022-11-29T22:33:37.507Z,101298.75
2022-11-29T22:36:13.263Z,101293.47
2022-11-29T22:38:46.726Z,101293.50
2022-11-29T22:41:20.237Z,101302.25
2022-11-29T22:43:54.028Z,101299.59
2022-11-29T22:46:36.105Z,101299.56
2022-11-29T22:49:31.086Z,101299.53
2022-11-29T22:52:11.431Z,101299.53
2022-11-29T22:55:05.473Z,101299.53
2022-11-29T22:57:46.394Z,101303.06
2022-11-29T23:00:20.291Z,101296.88
2022-11-29T23:02:58.213Z,101292.53
2022-11-29T23:05:34.581Z,101296.03
2022-11-29T23:08:16.141Z,101296.03
2022-11-29T23:10:57.648Z,101294.28
2022-11-29T23:13:35.328Z,101292.53
2022-11-29T23:16:22.262Z,101303.06
2022-11-29T23:19:00.114Z,101291.66
2022-11-29T23:21:40.627Z,101285.50
2022-11-29T23:24:18.873Z,101286.34
2022-11-29T23:26:54.053Z,101289.91
2022-11-29T23:29:31.815Z,101282.84
2022-11-29T23:32:13.942Z,101280.19
2022-11-29T23:34:51.018Z,101285.47
2022-11-29T23:37:26.810Z,101288.09
2022-11-29T23:40:02.135Z,101287.22
2022-11-29T23:42:37.619Z,101287.22
2022-11-29T23:45:17.338Z,101277.53
2022-11-29T23:47:53.311Z,101278.44
2022-11-29T23:50:34.102Z,101287.22
2022-11-29T23:53:18.188Z,101282.81
2022-11-29T23:55:59.088Z,101275.81
2022-11-29T23:58:36.489Z,101280.16
